createdAt,value
2017-11-17T00:00:58.694Z,101510.47
2017-11-17T00:03:26.092Z,101511.48
2017-11-17T00:05:53.508Z,101519.72
2017-11-17T00:08:20.930Z,101525.25
2017-11-17T00:10:48.373Z,101528.87
2017-11-17T00:13:15.761Z,101523.95
2017-11-17T00:15:43.159Z,101521.73
2017-11-17T00:18:10.636Z,101526.64
2017-11-17T00:20:38.098Z,101526.89
2017-11-17T00:23:05.547Z,101527.66
2017-11-17T00:25:33.006Z,101529.78
2017-11-17T00:28:00.407Z,101532.27
2017-11-17T00:30:27.826Z,101531.56
2017-11-17T00:32:55.276Z,101530.97
2017-11-17T00:35:22.672Z,101539.02
2017-11-17T00:37:50.066Z,101540.00
2017-11-17T00:40:17.464Z,101546.74
2017-11-17T00:42:44.894Z,101544.28
2017-11-17T00:45:12.292Z,101547.17
2017-11-17T00:47:39.687Z,101549.60
2017-11-17T00:50:07.090Z,101555.24
2017-11-17T00:52:34.484Z,101556.52
2017-11-17T00:55:01.881Z,101554.17
2017-11-17T00:57:29.338Z,101561.77
2017-11-17T00:59:56.772Z,101562.34
2017-11-17T01:02:24.244Z,101563.83
2017-11-17T01:04:51.637Z,101573.46
2017-11-17T01:07:19.117Z,101565.42
2017-11-17T01:09:46.572Z,101573.03
2017-11-17T01:12:13.972Z,101576.47
2017-11-17T01:14:41.362Z,101577.85
2017-11-17T01:17:08.835Z,101578.63
2017-11-17T01:19:36.240Z,101576.45
2017-11-17T01:22:03.651Z,101586.40
2017-11-17T01:24:31.059Z,101589.06
2017-11-17T01:26:58.443Z,101588.62
2017-11-17T01:29:25.845Z,101580.69
2017-11-17T01:31:53.244Z,101581.38
2017-11-17T01:34:20.737Z,101590.87
2017-11-17T01:36:48.125Z,101592.03
2017-11-17T01:39:15.584Z,101595.58
2017-11-17T01:41:42.980Z,101597.27
2017-11-17T01:44:10.372Z,101607.34
2017-11-17T01:46:37.770Z,101614.39
2017-11-17T01:49:05.170Z,101614.88
2017-11-17T01:51:32.555Z,101615.34
2017-11-17T01:54:00.028Z,101614.48
2017-11-17T01:56:27.416Z,101617.52
2017-11-17T01:58:54.812Z,101617.00
2017-11-17T02:01:22.289Z,101623.08
2017-11-17T02:03:49.687Z,101623.66
2017-11-17T02:06:17.096Z,101633.09
2017-11-17T02:08:44.495Z,101639.75
2017-11-17T02:11:11.889Z,101631.90
2017-11-17T02:13:39.280Z,101631.31
2017-11-17T02:16:06.672Z,101634.02
2017-11-17T02:18:34.082Z,101640.80
2017-11-17T02:21:01.467Z,101642.22
2017-11-17T02:23:28.860Z,101644.80
2017-11-17T02:25:56.335Z,101646.03
2017-11-17T02:28:23.727Z,101643.96
2017-11-17T02:30:51.124Z,101643.59
2017-11-17T02:33:18.522Z,101647.92
2017-11-17T02:35:45.968Z,101648.53
2017-11-17T02:38:13.422Z,101650.69
2017-11-17T02:40:40.881Z,101655.30
2017-11-17T02:43:08.264Z,101657.55
2017-11-17T02:45:35.689Z,101656.08
2017-11-17T02:48:03.144Z,101655.94
2017-11-17T02:50:30.604Z,101657.88
2017-11-17T02:52:58.068Z,101666.70
2017-11-17T02:55:25.463Z,101662.54
2017-11-17T02:57:52.851Z,101664.33
2017-11-17T03:00:20.328Z,101675.08
2017-11-17T03:02:47.725Z,101667.19
2017-11-17T03:05:15.131Z,101666.89
2017-11-17T03:07:42.522Z,101675.69
2017-11-17T03:10:09.914Z,101675.09
2017-11-17T03:12:37.409Z,101674.77
2017-11-17T03:15:04.795Z,101677.19
2017-11-17T03:17:32.183Z,101681.61
2017-11-17T03:19:59.592Z,101681.98
2017-11-17T03:22:27.028Z,101683.73
2017-11-17T03:24:54.479Z,101688.16
2017-11-17T03:27:21.879Z,101687.86
2017-11-17T03:29:49.393Z,101692.58
2017-11-17T03:32:16.853Z,101690.28
2017-11-17T03:34:44.248Z,101691.52
2017-11-17T03:37:11.653Z,101687.94
2017-11-17T03:39:39.067Z,101693.86
2017-11-17T03:42:06.576Z,101698.66
2017-11-17T03:44:33.976Z,101703.63
2017-11-17T03:47:01.379Z,101702.19
2017-11-17T03:49:28.844Z,101713.44
2017-11-17T03:51:56.296Z,101715.66
2017-11-17T03:54:23.696Z,101717.05
2017-11-17T03:56:51.104Z,101725.91
2017-11-17T03:59:18.501Z,101723.64
2017-11-17T04:01:45.915Z,101727.89
2017-11-17T04:04:13.371Z,101728.63
2017-11-17T04:06:40.767Z,101730.11
2017-11-17T04:09:08.187Z,101731.34
2017-11-17T04:11:35.639Z,101728.76
2017-11-17T04:14:03.031Z,101728.33
2017-11-17T04:16:30.435Z,101731.73
2017-11-17T04:18:57.906Z,101743.17
2017-11-17T04:21:25.320Z,101737.98
2017-11-17T04:23:52.700Z,101742.16
2017-11-17T04:26:20.116Z,101744.87
2017-11-17T04:28:47.501Z,101741.94
2017-11-17T04:31:14.987Z,101741.55
2017-11-17T04:33:42.453Z,101733.55
2017-11-17T04:36:09.848Z,101746.73
2017-11-17T04:38:37.238Z,101745.15
2017-11-17T04:41:04.720Z,101748.89
2017-11-17T04:43:32.107Z,101750.95
2017-11-17T04:45:59.514Z,101751.66
2017-11-17T04:48:26.910Z,101755.84
2017-11-17T04:50:54.338Z,101764.41
2017-11-17T04:53:21.735Z,101761.38
2017-11-17T04:55:49.135Z,101759.14
2017-11-17T04:58:16.540Z,101764.38
2017-11-17T05:00:43.935Z,101761.81
2017-11-17T05:05:38.040Z,101764.72
2017-11-17T05:08:05.442Z,101765.81
2017-11-17T05:10:32.836Z,101762.83
2017-11-17T05:13:00.318Z,101761.43
2017-11-17T05:15:27.707Z,101766.84
2017-11-17T05:17:55.133Z,101768.13
2017-11-17T05:20:22.583Z,101766.10
2017-11-17T05:22:49.980Z,101775.28
2017-11-17T05:25:17.364Z,101772.72
2017-11-17T05:27:44.767Z,101779.14
2017-11-17T05:30:12.160Z,101779.39
2017-11-17T05:32:39.664Z,101770.68
2017-11-17T05:35:07.119Z,101776.41
2017-11-17T05:37:34.512Z,101780.14
2017-11-17T05:40:01.899Z,101787.75
2017-11-17T05:42:29.292Z,101790.91
2017-11-17T05:44:56.736Z,101796.52
2017-11-17T05:47:24.196Z,101797.11
2017-11-17T05:49:51.647Z,101791.53
2017-11-17T05:52:19.112Z,101795.48
2017-11-17T05:54:46.563Z,101787.23
2017-11-17T05:57:14.015Z,101795.16
2017-11-17T05:59:41.401Z,101799.72
2017-11-17T06:02:08.800Z,101803.23
2017-11-17T06:04:36.184Z,101806.52
2017-11-17T06:07:03.639Z,101810.86
2017-11-17T06:09:31.100Z,101811.25
2017-11-17T06:11:58.560Z,101811.22
2017-11-17T06:14:25.952Z,101814.44
2017-11-17T06:16:53.336Z,101814.27
2017-11-17T06:19:20.737Z,101820.42
2017-11-17T06:21:48.181Z,101825.58
2017-11-17T06:24:15.580Z,101828.73
2017-11-17T06:26:42.958Z,101827.39
2017-11-17T06:29:10.360Z,101829.63
2017-11-17T06:31:37.749Z,101834.58
2017-11-17T06:34:05.148Z,101840.82
2017-11-17T06:36:32.604Z,101840.49
2017-11-17T06:39:00.008Z,101848.05
2017-11-17T06:41:27.391Z,101845.97
2017-11-17T06:43:54.792Z,101849.23
2017-11-17T06:46:22.228Z,101850.49
2017-11-17T06:48:49.619Z,101856.66
2017-11-17T06:51:17.055Z,101867.29
2017-11-17T06:53:44.444Z,101857.76
2017-11-17T06:56:11.832Z,101860.22
2017-11-17T06:58:39.226Z,101861.91
2017-11-17T07:01:06.623Z,101862.08
2017-11-17T07:03:34.017Z,101868.02
2017-11-17T07:06:01.407Z,101871.36
2017-11-17T07:08:28.827Z,101873.04
2017-11-17T07:10:56.279Z,101870.90
2017-11-17T07:13:23.673Z,101873.90
2017-11-17T07:15:51.083Z,101882.91
2017-11-17T07:18:18.549Z,101888.48
2017-11-17T07:20:45.948Z,101892.27
2017-11-17T07:23:13.355Z,101897.27
2017-11-17T07:25:40.757Z,101905.73
2017-11-17T07:28:08.139Z,101905.89
2017-11-17T07:30:35.629Z,101903.81
2017-11-17T07:33:03.016Z,101910.01
2017-11-17T07:35:30.426Z,101909.62
2017-11-17T07:37:57.893Z,101911.31
2017-11-17T07:40:25.348Z,101912.98
2017-11-17T07:42:52.735Z,101907.93
2017-11-17T07:45:20.171Z,101915.48
2017-11-17T07:47:47.540Z,101913.83
2017-11-17T07:50:14.986Z,101909.13
2017-11-17T07:52:42.420Z,101912.05
2017-11-17T07:55:09.824Z,101913.23
2017-11-17T07:57:37.236Z,101911.63
2017-11-17T08:00:04.630Z,101915.06
2017-11-17T08:02:32.012Z,101914.75
2017-11-17T08:04:59.413Z,101917.48
2017-11-17T08:07:26.851Z,101921.66
2017-11-17T08:09:54.284Z,101915.73
2017-11-17T08:12:21.771Z,101916.50
2017-11-17T08:14:49.241Z,101913.43
2017-11-17T08:17:24.211Z,101916.91
2017-11-17T08:19:51.715Z,101920.42
2017-11-17T08:22:19.120Z,101918.78
2017-11-17T08:24:46.531Z,101923.03
2017-11-17T08:27:13.954Z,101923.16
2017-11-17T08:29:41.326Z,101922.44
2017-11-17T08:32:08.728Z,101921.16
2017-11-17T08:34:36.219Z,101919.75
2017-11-17T08:37:03.611Z,101920.64
2017-11-17T08:39:31.032Z,101929.92
2017-11-17T08:41:58.491Z,101925.22
2017-11-17T08:44:25.876Z,101934.70
2017-11-17T08:46:53.304Z,101929.28
2017-11-17T08:49:20.704Z,101923.55
2017-11-17T08:51:48.231Z,101927.66
2017-11-17T08:54:15.684Z,101937.03
2017-11-17T08:56:43.075Z,101938.83
2017-11-17T08:59:10.476Z,101942.50
2017-11-17T09:01:37.876Z,101930.61
2017-11-17T09:04:05.260Z,101931.41
2017-11-17T09:06:32.695Z,101935.87
2017-11-17T09:09:00.302Z,101938.02
2017-11-17T09:11:27.729Z,101929.49
2017-11-17T09:13:55.118Z,101936.86
2017-11-17T09:16:22.569Z,101931.02
2017-11-17T09:18:49.952Z,101935.38
2017-11-17T09:21:17.347Z,101942.49
2017-11-17T09:23:44.751Z,101944.45
2017-11-17T09:26:12.146Z,101951.70
2017-11-17T09:28:39.549Z,101952.75
2017-11-17T09:31:06.943Z,101958.39
2017-11-17T09:33:34.355Z,101955.54
2017-11-17T09:36:01.747Z,101959.22
2017-11-17T09:38:29.137Z,101954.70
2017-11-17T09:40:56.527Z,101957.42
2017-11-17T09:43:23.980Z,101946.92
2017-11-17T09:45:51.391Z,101949.44
2017-11-17T09:48:18.789Z,101946.17
2017-11-17T09:50:46.194Z,101952.97
2017-11-17T09:53:13.598Z,101954.35
2017-11-17T09:55:40.996Z,101951.45
2017-11-17T09:58:08.532Z,101948.91
2017-11-17T10:00:35.989Z,101941.38
2017-11-17T10:03:03.404Z,101947.08
2017-11-17T10:05:30.799Z,101944.25
2017-11-17T10:07:58.239Z,101947.54
2017-11-17T10:10:25.691Z,101950.45
2017-11-17T10:12:53.153Z,101945.31
2017-11-17T10:15:20.712Z,101944.47
2017-11-17T10:17:48.227Z,101946.59
2017-11-17T10:20:15.744Z,101949.96
2017-11-17T10:22:43.137Z,101950.51
2017-11-17T10:25:10.522Z,101951.82
2017-11-17T10:27:37.988Z,101953.66
2017-11-17T10:30:05.385Z,101957.33
2017-11-17T10:32:32.799Z,101955.61
2017-11-17T10:35:00.403Z,101952.23
2017-11-17T10:37:27.819Z,101956.31
2017-11-17T10:39:55.270Z,101945.76
2017-11-17T10:42:22.664Z,101944.71
2017-11-17T10:44:50.100Z,101947.45
2017-11-17T10:47:17.561Z,101948.16
2017-11-17T10:49:44.947Z,101949.67
2017-11-17T10:52:12.337Z,101940.98
2017-11-17T10:54:39.724Z,101948.72
2017-11-17T10:57:08.889Z,101943.27
2017-11-17T10:59:38.616Z,101945.21
2017-11-17T11:02:06.095Z,101939.58
2017-11-17T11:04:33.490Z,101937.25
2017-11-17T11:07:00.906Z,101937.35
2017-11-17T11:09:28.377Z,101940.17
2017-11-17T11:11:55.774Z,101939.46
2017-11-17T11:14:23.167Z,101941.63
2017-11-17T11:16:50.635Z,101945.68
2017-11-17T11:19:18.100Z,101940.98
2017-11-17T11:21:45.483Z,101937.02
2017-11-17T11:24:12.879Z,101935.63
2017-11-17T11:26:40.346Z,101939.92
2017-11-17T11:29:07.739Z,101938.65
2017-11-17T11:31:35.162Z,101934.08
2017-11-17T11:34:02.626Z,101933.08
2017-11-17T11:36:30.085Z,101932.44
2017-11-17T11:38:57.475Z,101940.48
2017-11-17T11:41:24.890Z,101940.33
2017-11-17T11:43:52.350Z,101943.52
2017-11-17T11:46:19.731Z,101947.86
2017-11-17T11:48:47.133Z,101946.80
2017-11-17T11:51:14.611Z,101931.48
2017-11-17T11:53:42.019Z,101939.55
2017-11-17T11:56:09.423Z,101942.52
2017-11-17T11:58:36.899Z,101938.47
2017-11-17T12:01:04.288Z,101929.41
2017-11-17T12:03:31.676Z,101929.38
2017-11-17T12:05:59.073Z,101931.02
2017-11-17T12:08:26.470Z,101923.16
2017-11-17T12:10:53.859Z,101922.15
2017-11-17T12:13:21.248Z,101926.09
2017-11-17T12:15:48.648Z,101926.58
2017-11-17T12:18:16.041Z,101926.88
2017-11-17T12:20:43.431Z,101924.13
2017-11-17T12:23:10.836Z,101919.81
2017-11-17T12:25:38.229Z,101919.13
2017-11-17T12:28:05.644Z,101918.83
2017-11-17T12:30:33.036Z,101909.78
2017-11-17T12:33:00.458Z,101908.90
2017-11-17T12:35:27.854Z,101910.38
2017-11-17T12:37:55.240Z,101900.08
2017-11-17T12:40:22.745Z,101897.50
2017-11-17T12:42:50.148Z,101896.42
2017-11-17T12:45:17.655Z,101889.80
2017-11-17T12:47:45.108Z,101891.18
2017-11-17T12:50:12.505Z,101892.74
2017-11-17T12:52:39.929Z,101890.66
2017-11-17T12:55:07.328Z,101885.45
2017-11-17T12:57:34.708Z,101887.78
2017-11-17T13:00:02.111Z,101886.00
2017-11-17T13:02:29.546Z,101886.89
2017-11-17T13:04:57.016Z,101883.42
2017-11-17T13:07:24.455Z,101883.79
2017-11-17T13:09:51.854Z,101887.14
2017-11-17T13:12:19.243Z,101881.63
2017-11-17T13:14:46.736Z,101882.61
2017-11-17T13:17:14.124Z,101877.91
2017-11-17T13:19:41.511Z,101881.81
2017-11-17T13:22:08.996Z,101882.62
2017-11-17T13:24:36.416Z,101875.27
2017-11-17T13:27:03.796Z,101870.55
2017-11-17T13:29:31.264Z,101865.95
2017-11-17T13:31:58.723Z,101865.27
2017-11-17T13:34:26.125Z,101863.34
2017-11-17T13:36:53.567Z,101864.08
2017-11-17T13:39:21.010Z,101865.06
2017-11-17T13:41:48.447Z,101863.59
2017-11-17T13:44:15.879Z,101856.07
2017-11-17T13:46:43.278Z,101853.98
2017-11-17T13:49:10.791Z,101860.64
2017-11-17T13:51:38.217Z,101855.87
2017-11-17T13:54:05.601Z,101858.23
2017-11-17T13:56:32.997Z,101843.53
2017-11-17T13:59:00.467Z,101854.10
2017-11-17T14:01:27.840Z,101846.78
2017-11-17T14:03:55.227Z,101853.70
2017-11-17T14:06:22.632Z,101851.70
2017-11-17T14:08:50.021Z,101849.08
2017-11-17T14:11:17.419Z,101850.70
2017-11-17T14:13:44.875Z,101843.87
2017-11-17T14:16:12.332Z,101846.78
2017-11-17T14:18:39.720Z,101850.21
2017-11-17T14:21:07.162Z,101844.09
2017-11-17T14:23:34.499Z,101845.72
2017-11-17T14:26:01.956Z,101842.53
2017-11-17T14:28:29.347Z,101846.53
2017-11-17T14:30:56.771Z,101836.79
2017-11-17T14:33:24.159Z,101842.48
2017-11-17T14:35:51.547Z,101842.50
2017-11-17T14:38:19.041Z,101841.98
2017-11-17T14:40:46.427Z,101834.10
2017-11-17T14:43:13.823Z,101834.28
2017-11-17T14:45:41.211Z,101833.98
2017-11-17T14:48:08.664Z,101835.95
2017-11-17T14:50:36.070Z,101837.11
2017-11-17T14:53:03.460Z,101834.63
2017-11-17T14:55:30.852Z,101829.02
2017-11-17T14:57:58.268Z,101821.69
2017-11-17T15:00:25.656Z,101828.20
2017-11-17T15:02:53.047Z,101827.25
2017-11-17T15:07:55.428Z,101835.08
2017-11-17T15:10:22.815Z,101827.81
2017-11-17T15:12:50.254Z,101830.74
2017-11-17T15:15:17.753Z,101834.04
2017-11-17T15:17:45.143Z,101827.42
2017-11-17T15:20:12.568Z,101829.20
2017-11-17T15:22:39.967Z,101825.01
2017-11-17T15:25:07.365Z,101817.94
2017-11-17T15:27:34.833Z,101819.87
2017-11-17T15:30:02.221Z,101816.63
2017-11-17T15:32:29.656Z,101816.16
2017-11-17T15:34:57.035Z,101824.45
2017-11-17T15:37:24.457Z,101827.18
2017-11-17T15:39:51.878Z,101820.61
2017-11-17T15:42:19.372Z,101816.02
2017-11-17T15:44:46.756Z,101812.30
2017-11-17T15:47:14.145Z,101810.23
2017-11-17T15:49:41.536Z,101805.76
2017-11-17T15:52:08.912Z,101810.45
2017-11-17T15:54:36.346Z,101804.84
2017-11-17T15:57:03.806Z,101803.31
2017-11-17T15:59:31.198Z,101810.28
2017-11-17T16:01:58.584Z,101809.60
2017-11-17T16:04:25.981Z,101803.91
2017-11-17T16:06:53.359Z,101810.92
2017-11-17T16:09:20.748Z,101807.61
2017-11-17T16:11:48.134Z,101804.59
2017-11-17T16:14:15.523Z,101806.14
2017-11-17T16:16:42.908Z,101806.13
2017-11-17T16:19:10.403Z,101797.17
2017-11-17T16:21:37.863Z,101803.94
2017-11-17T16:24:05.320Z,101796.92
2017-11-17T16:26:32.709Z,101801.62
2017-11-17T16:29:00.127Z,101797.33
2017-11-17T16:31:27.507Z,101805.04
2017-11-17T16:33:54.915Z,101800.73
2017-11-17T16:36:22.396Z,101799.27
2017-11-17T16:38:49.788Z,101797.30
2017-11-17T16:41:17.198Z,101798.38
2017-11-17T16:43:44.593Z,101792.22
2017-11-17T16:46:12.021Z,101795.59
2017-11-17T16:48:39.419Z,101801.86
2017-11-17T16:51:06.808Z,101796.98
2017-11-17T16:53:34.199Z,101796.88
2017-11-17T16:56:01.593Z,101804.53
2017-11-17T16:58:28.995Z,101797.36
2017-11-17T17:00:56.467Z,101801.34
2017-11-17T17:03:23.907Z,101795.58
2017-11-17T17:05:51.324Z,101796.81
2017-11-17T17:08:18.805Z,101796.20
2017-11-17T17:10:46.198Z,101802.82
2017-11-17T17:13:13.580Z,101793.15
2017-11-17T17:15:40.980Z,101798.69
2017-11-17T17:18:08.366Z,101801.44
2017-11-17T17:20:35.749Z,101795.54
2017-11-17T17:23:03.155Z,101800.69
2017-11-17T17:25:30.543Z,101801.44
2017-11-17T17:27:57.963Z,101801.11
2017-11-17T17:30:25.352Z,101794.72
2017-11-17T17:32:52.738Z,101793.47
2017-11-17T17:35:20.224Z,101794.61
2017-11-17T17:37:47.608Z,101791.91
2017-11-17T17:40:15.008Z,101788.82
2017-11-17T17:42:42.404Z,101791.75
2017-11-17T17:45:09.788Z,101786.32
2017-11-17T17:47:37.173Z,101790.84
2017-11-17T17:50:04.799Z,101787.81
2017-11-17T17:52:32.235Z,101792.01
2017-11-17T17:54:59.620Z,101790.48
2017-11-17T17:57:27.034Z,101789.34
2017-11-17T17:59:54.420Z,101786.09
2017-11-17T18:02:21.852Z,101782.22
2017-11-17T18:04:49.309Z,101782.09
2017-11-17T18:07:16.756Z,101774.02
2017-11-17T18:09:44.145Z,101782.53
2017-11-17T18:12:11.535Z,101775.20
2017-11-17T18:14:38.922Z,101768.14
2017-11-17T18:17:06.411Z,101774.84
2017-11-17T18:19:33.827Z,101765.71
2017-11-17T18:22:01.295Z,101768.41
2017-11-17T18:24:28.794Z,101777.64
2017-11-17T18:26:56.144Z,101772.94
2017-11-17T18:29:23.601Z,101766.20
2017-11-17T18:31:50.985Z,101770.84
2017-11-17T18:34:18.363Z,101767.98
2017-11-17T18:36:45.748Z,101767.42
2017-11-17T18:39:13.139Z,101767.19
2017-11-17T18:41:40.524Z,101765.81
2017-11-17T18:44:07.941Z,101765.48
2017-11-17T18:46:35.409Z,101764.94
2017-11-17T18:49:02.849Z,101756.97
2017-11-17T18:51:30.175Z,101756.64
2017-11-17T18:53:57.571Z,101751.81
2017-11-17T18:56:24.956Z,101752.67
2017-11-17T18:58:52.380Z,101753.23
2017-11-17T19:01:19.786Z,101748.30
2017-11-17T19:03:47.193Z,101744.36
2017-11-17T19:06:14.578Z,101739.17
2017-11-17T19:08:41.972Z,101740.09
2017-11-17T19:11:09.359Z,101734.21
2017-11-17T19:13:36.801Z,101733.78
2017-11-17T19:16:04.129Z,101723.96
2017-11-17T19:18:31.518Z,101722.22
2017-11-17T19:20:58.912Z,101724.83
2017-11-17T19:23:26.303Z,101728.45
2017-11-17T19:25:53.741Z,101722.02
2017-11-17T19:28:21.128Z,101726.19
2017-11-17T19:30:48.547Z,101725.20
2017-11-17T19:33:15.953Z,101723.88
2017-11-17T19:35:43.328Z,101714.92
2017-11-17T19:38:10.718Z,101724.20
2017-11-17T19:40:38.106Z,101719.94
2017-11-17T19:43:05.495Z,101718.47
2017-11-17T19:45:32.896Z,101712.89
2017-11-17T19:48:00.284Z,101697.19
2017-11-17T19:50:27.677Z,101701.45
2017-11-17T19:52:55.089Z,101698.44
2017-11-17T19:55:22.480Z,101693.45
2017-11-17T19:57:49.872Z,101696.60
2017-11-17T20:00:17.361Z,101693.72
2017-11-17T20:02:44.811Z,101701.39
2017-11-17T20:05:12.208Z,101697.14
2017-11-17T20:07:39.628Z,101694.28
2017-11-17T20:10:07.085Z,101698.91
2017-11-17T20:12:34.472Z,101692.16
2017-11-17T20:15:01.892Z,101687.93
2017-11-17T20:17:29.271Z,101687.02
2017-11-17T20:19:56.675Z,101681.86
2017-11-17T20:22:24.161Z,101672.77
2017-11-17T20:24:51.556Z,101679.53
2017-11-17T20:27:18.968Z,101679.44
2017-11-17T20:29:46.436Z,101674.02
2017-11-17T20:32:13.885Z,101679.18
2017-11-17T20:34:41.285Z,101665.59
2017-11-17T20:37:08.668Z,101665.00
2017-11-17T20:39:36.064Z,101668.11
2017-11-17T20:42:03.500Z,101666.73
2017-11-17T20:44:30.887Z,101665.80
2017-11-17T20:46:58.284Z,101663.14
2017-11-17T20:49:25.771Z,101659.59
2017-11-17T20:51:53.160Z,101653.67
2017-11-17T20:54:20.648Z,101649.38
2017-11-17T20:56:48.034Z,101648.77
2017-11-17T20:59:15.431Z,101641.38
2017-11-17T21:01:42.832Z,101643.27
2017-11-17T21:04:10.218Z,101646.07
2017-11-17T21:06:37.716Z,101638.75
2017-11-17T21:09:05.175Z,101637.72
2017-11-17T21:11:32.578Z,101633.45
2017-11-17T21:13:59.983Z,101629.06
2017-11-17T21:16:27.479Z,101634.88
2017-11-17T21:18:54.863Z,101633.22
2017-11-17T21:21:22.287Z,101635.95
2017-11-17T21:23:49.675Z,101637.33
2017-11-17T21:26:17.099Z,101637.22
2017-11-17T21:28:44.483Z,101637.70
2017-11-17T21:31:11.869Z,101633.35
2017-11-17T21:33:39.265Z,101629.28
2017-11-17T21:36:06.664Z,101637.72
2017-11-17T21:38:34.092Z,101635.28
2017-11-17T21:41:01.536Z,101631.70
2017-11-17T21:43:28.924Z,101627.54
2017-11-17T21:45:56.348Z,101628.69
2017-11-17T21:48:23.804Z,101634.95
2017-11-17T21:50:51.207Z,101631.48
2017-11-17T21:53:18.592Z,101620.94
2017-11-17T21:55:46.071Z,101622.06
2017-11-17T21:58:13.549Z,101618.62
2017-11-17T22:00:40.931Z,101613.63
2017-11-17T22:03:08.335Z,101612.35
2017-11-17T22:05:35.788Z,101608.31
2017-11-17T22:08:03.247Z,101603.82
2017-11-17T22:10:30.634Z,101601.48
2017-11-17T22:12:58.028Z,101602.21
2017-11-17T22:15:25.420Z,101599.00
2017-11-17T22:17:52.812Z,101600.47
2017-11-17T22:20:20.233Z,101596.30
2017-11-17T22:22:47.616Z,101589.09
2017-11-17T22:25:15.008Z,101581.41
2017-11-17T22:27:42.485Z,101583.08
2017-11-17T22:30:09.872Z,101586.66
2017-11-17T22:32:37.296Z,101580.06
2017-11-17T22:35:04.752Z,101579.34
2017-11-17T22:37:32.138Z,101572.32
2017-11-17T22:39:59.565Z,101574.36
2017-11-17T22:42:26.952Z,101567.50
2017-11-17T22:44:54.381Z,101569.63
2017-11-17T22:47:21.776Z,101571.10
2017-11-17T22:49:49.186Z,101576.69
2017-11-17T22:52:16.644Z,101576.58
2017-11-17T22:54:44.036Z,101568.47
2017-11-17T22:57:11.465Z,101574.27
2017-11-17T22:59:38.907Z,101578.34
2017-11-17T23:02:06.287Z,101569.91
2017-11-17T23:04:33.718Z,101563.05
2017-11-17T23:07:01.114Z,101558.89
2017-11-17T23:09:28.503Z,101553.92
2017-11-17T23:11:55.892Z,101551.86
2017-11-17T23:14:23.296Z,101549.91
2017-11-17T23:16:50.696Z,101546.32
2017-11-17T23:19:18.071Z,101542.92
2017-11-17T23:21:45.457Z,101536.30
2017-11-17T23:24:12.860Z,101539.22
2017-11-17T23:26:40.315Z,101528.98
2017-11-17T23:29:07.708Z,101529.41
2017-11-17T23:31:35.096Z,101522.86
2017-11-17T23:34:02.855Z,101532.94
2017-11-17T23:36:30.350Z,101524.72
2017-11-17T23:38:57.743Z,101521.84
2017-11-17T23:41:25.166Z,101520.67
2017-11-17T23:43:52.547Z,101518.89
2017-11-17T23:46:19.953Z,101513.57
2017-11-17T23:48:47.356Z,101513.96
2017-11-17T23:51:14.737Z,101517.66
2017-11-17T23:53:42.116Z,101512.72
2017-11-17T23:56:09.546Z,101511.70
2017-11-17T23:58:36.993Z,101503.46
